首页
METAR-TAF:

METAR-TAF

机场 :

悉尼机场

悉尼, 澳大利亚

纬度: 33-57S, 经度: 151-11E, 海拔: 6米

当前天气观测

该预报发布于37分钟前的05:00 UTC
风速18节,风向东北
温度 25°C
湿度 57%
气压 1013 hPa
能见度10公里或以上
1500米以下无云,无积雨云

METAR: YSSY 190500Z 05018KT CAVOK 25/16 Q1013 NOSIG

时间: 16:37 (05:37 UTC)

预报

该预报发布于29分钟前的05:08 UTC
预报有效从19日的 06点(UTC)到 20日的 12点(UTC)
风速15节,风向东北
能见度10公里或以上
1500米以下无云,无积雨云
从 19日的 1000点(UTC)
风速10节,风向
能见度10公里或以上
少量云层高于800英尺
从 19日的 2300点(UTC)
风速14节,风向北转东北
能见度10公里或以上
1500米以下无云,无积雨云
从 20日的 0300点(UTC)
风速15节,风向东北,有时为25节阵风
能见度10公里或以上
散云层高于4000英尺
从 20日的 1000点(UTC)
风速15节,风向
能见度10公里或以上
多云层高于800英尺
多云层高于2000英尺
小阵雨
几率 30% :
短暂存在
从 20日的 04点(UTC)到 20日的 06点(UTC)
风速25节,风向多变,有时为35节阵风
能見度: 3000
多云层高于1000英尺
少量云层高于3500英尺, 积雨云.
雷暴, 雨
几率 40% :
短暂存在
从 20日的 06点(UTC)到 20日的 12点(UTC)
风速25节,风向多变,有时为45节阵风
能見度: 2000
多云层高于800英尺
散云层高于3000英尺, 积雨云.
雷暴, 大雨

TAF: YSSY 190508Z 1906/2012 04015KT CAVOK FM191000 01010KT 9999 FEW008 FM192300 02014KT CAVOK FM200300 04015G25KT 9999 SCT040 FM201000 18015KT 9999 -SHRA BKN008 BKN020 PROB30 TEMPO 2004/2006 VRB25G35KT 3000 TSRA BKN010 FEW035CB PROB40 TEMPO 2006/2012 VRB25G45KT 2000 +TSRA BKN008 SCT030CB

超过4000个机场的气象观测和天气预报(METAR&TAF报告)。

可查询的气象台以黄色和红色小点在地图上表示。

将鼠标移到小点上方,可查看气象台名称。

然后点击查看天气观测和预报。

如需切换地图:点击带黑十字的绿色按钮放大地图;点击带横线的绿色按钮缩小地图;或者点击绿色箭头查看邻近地区的地图。


METAR-TAF: